createdAt,value
2017-08-08T00:00:29.317Z,97.42
2017-08-08T00:01:41.915Z,97.33
2017-08-08T00:02:54.184Z,97.71
2017-08-08T00:04:06.482Z,98
2017-08-08T00:05:19.063Z,97.52
2017-08-08T00:06:31.397Z,97.71
2017-08-08T00:07:43.960Z,97.52
2017-08-08T00:08:56.505Z,97.13
2017-08-08T00:10:08.783Z,97.61
2017-08-08T00:11:21.334Z,97.42
2017-08-08T00:12:33.961Z,97.52
2017-08-08T00:13:46.575Z,98
2017-08-08T00:14:58.543Z,98.28
2017-08-08T00:16:11.117Z,98.28
2017-08-08T00:17:23.410Z,97.71
2017-08-08T00:18:36.063Z,98.19
2017-08-08T00:19:48.382Z,98
2017-08-08T00:21:00.682Z,98.19
2017-08-08T00:22:12.920Z,98.28
2017-08-08T00:23:24.618Z,98.19
2017-08-08T00:24:36.892Z,98.57
2017-08-08T00:25:49.423Z,98.43
2017-08-08T00:27:02.030Z,98.43
2017-08-08T00:28:14.372Z,98.66
2017-08-08T00:29:26.961Z,98.33
2017-08-08T00:30:39.291Z,99
2017-08-08T00:31:51.872Z,98.38
2017-08-08T00:33:04.180Z,98.61
2017-08-08T00:34:16.810Z,98.71
2017-08-08T00:35:29.096Z,99
2017-08-08T00:36:41.669Z,98.71
2017-08-08T00:37:53.966Z,98.61
2017-08-08T00:39:06.560Z,98.71
2017-08-08T00:40:19.168Z,99
2017-08-08T00:41:31.812Z,98.9
2017-08-08T00:42:44.450Z,99
2017-08-08T00:43:57.031Z,99.1
2017-08-08T00:45:09.640Z,99.67
2017-08-08T00:46:22.268Z,99.99
2017-08-08T00:47:34.818Z,99.48
2017-08-08T00:48:47.132Z,99.57
2017-08-08T00:49:59.725Z,99.48
2017-08-08T00:51:12.336Z,99.57
2017-08-08T00:52:24.027Z,99.86
2017-08-08T00:53:36.598Z,99.86
2017-08-08T00:54:48.972Z,99.86
2017-08-08T00:56:01.593Z,99.96
2017-08-08T00:57:13.926Z,99.67
2017-08-08T00:58:26.538Z,99.99
2017-08-08T00:59:39.179Z,99.86
2017-08-08T01:00:51.799Z,99.99
2017-08-08T01:02:04.426Z,99.67
2017-08-08T01:03:17.003Z,99.76
2017-08-08T01:04:29.285Z,99.99
2017-08-08T01:05:41.849Z,99.96
2017-08-08T01:06:53.842Z,99.86
2017-08-08T01:08:05.506Z,99.86
2017-08-08T01:09:17.458Z,99.86
2017-08-08T01:10:30.056Z,99.99
2017-08-08T01:11:42.268Z,99.86
2017-08-08T01:12:54.214Z,99.99
2017-08-08T01:14:06.821Z,99.76
2017-08-08T01:15:19.416Z,99.86
2017-08-08T01:16:32.046Z,99.67
2017-08-08T01:17:44.403Z,99.99
2017-08-08T01:18:57.019Z,99.99
2017-08-08T01:20:09.526Z,99.67
2017-08-08T01:21:21.772Z,99.99
2017-08-08T01:22:34.426Z,99.99
2017-08-08T01:23:47.072Z,99.76
2017-08-08T01:24:59.671Z,99.67
2017-08-08T01:26:11.701Z,99.67
2017-08-08T01:27:24.276Z,99.99
2017-08-08T01:28:36.918Z,99.99
2017-08-08T01:29:49.543Z,99.99
2017-08-08T01:31:02.394Z,99.99
2017-08-08T01:32:14.987Z,99.99
2017-08-08T01:33:27.554Z,99.99
2017-08-08T01:34:39.828Z,99.99
2017-08-08T01:35:51.830Z,99.99
2017-08-08T01:37:04.439Z,99.99
2017-08-08T01:38:17.062Z,99.99
2017-08-08T01:39:29.407Z,99.99
2017-08-08T01:40:41.686Z,99.99
2017-08-08T01:41:54.247Z,99.99
2017-08-08T01:43:06.487Z,99.99
2017-08-08T01:44:19.122Z,99.99
2017-08-08T01:45:31.723Z,99.99
2017-08-08T01:46:44.050Z,99.99
2017-08-08T01:47:56.396Z,99.99
2017-08-08T01:49:08.955Z,99.99
2017-08-08T01:50:21.570Z,99.99
2017-08-08T01:51:34.133Z,99.99
2017-08-08T01:52:46.403Z,99.99
2017-08-08T01:53:59.045Z,99.99
2017-08-08T01:55:11.068Z,99.99
2017-08-08T01:56:23.624Z,99.99
2017-08-08T01:57:35.951Z,99.99
2017-08-08T01:58:48.220Z,99.99
2017-08-08T02:00:00.605Z,99.99
2017-08-08T02:01:12.627Z,99.99
2017-08-08T02:02:25.254Z,99.99
2017-08-08T02:03:37.818Z,99.99
2017-08-08T02:04:50.099Z,99.99
2017-08-08T02:06:02.709Z,99.99
2017-08-08T02:07:14.720Z,99.99
2017-08-08T02:08:27.062Z,99.99
2017-08-08T02:09:39.722Z,99.99
2017-08-08T02:10:51.643Z,99.99
2017-08-08T02:12:04.205Z,99.99
2017-08-08T02:13:16.816Z,99.99
2017-08-08T02:14:29.363Z,99.99
2017-08-08T02:15:41.718Z,99.99
2017-08-08T02:16:54.292Z,99.99
2017-08-08T02:18:06.843Z,99.99
2017-08-08T02:19:18.838Z,99.99
2017-08-08T02:20:31.647Z,99.99
2017-08-08T02:21:44.268Z,99.99
2017-08-08T02:22:56.863Z,99.99
2017-08-08T02:24:09.188Z,99.99
2017-08-08T02:25:21.819Z,99.99
2017-08-08T02:26:34.482Z,99.99
2017-08-08T02:27:47.091Z,99.99
2017-08-08T02:28:59.032Z,99.99
2017-08-08T02:30:11.578Z,99.99
2017-08-08T02:31:23.880Z,99.99
2017-08-08T02:32:35.805Z,99.99
2017-08-08T02:33:48.109Z,99.99
2017-08-08T02:35:00.662Z,99.99
2017-08-08T02:36:12.964Z,99.99
2017-08-08T02:37:25.511Z,99.99
2017-08-08T02:38:37.759Z,99.99
2017-08-08T02:39:50.095Z,99.99
2017-08-08T02:41:02.323Z,99.99
2017-08-08T02:42:14.951Z,99.99
2017-08-08T02:43:27.517Z,99.99
2017-08-08T02:44:39.872Z,99.99
2017-08-08T02:45:52.497Z,99.99
2017-08-08T02:47:05.360Z,99.99
2017-08-08T02:48:17.972Z,99.99
2017-08-08T02:49:30.220Z,99.99
2017-08-08T02:50:42.877Z,99.99
2017-08-08T02:51:55.139Z,99.99
2017-08-08T02:53:07.769Z,99.99
2017-08-08T02:54:20.429Z,99.99
2017-08-08T02:55:32.991Z,99.99
2017-08-08T02:56:45.252Z,99.99
2017-08-08T02:57:57.556Z,99.99
2017-08-08T02:59:09.816Z,99.99
2017-08-08T03:00:21.777Z,99.99
2017-08-08T03:01:34.331Z,99.99
2017-08-08T03:02:46.900Z,99.99
2017-08-08T03:03:59.486Z,99.99
2017-08-08T03:05:12.065Z,99.99
2017-08-08T03:06:24.679Z,99.99
2017-08-08T03:07:36.981Z,99.99
2017-08-08T03:08:49.003Z,99.99
2017-08-08T03:10:01.249Z,99.99
2017-08-08T03:11:13.814Z,99.99
2017-08-08T03:12:26.079Z,99.99
2017-08-08T03:13:38.612Z,99.99
2017-08-08T03:14:50.601Z,99.99
2017-08-08T03:16:03.156Z,99.99
2017-08-08T03:17:15.430Z,99.99
2017-08-08T03:18:28.085Z,99.99
2017-08-08T03:19:40.392Z,99.99
2017-08-08T03:20:52.994Z,99.99
2017-08-08T03:22:05.609Z,99.99
2017-08-08T03:23:17.905Z,99.99
2017-08-08T03:24:30.226Z,99.99
2017-08-08T03:25:43.048Z,99.99
2017-08-08T03:26:55.372Z,99.99
2017-08-08T03:28:07.970Z,99.99
2017-08-08T03:29:20.595Z,99.99
2017-08-08T03:30:32.560Z,99.99
2017-08-08T03:31:45.176Z,99.99
2017-08-08T03:32:57.799Z,99.99
2017-08-08T03:34:10.395Z,99.99
2017-08-08T03:35:22.707Z,99.99
2017-08-08T03:36:35.322Z,99.99
2017-08-08T03:37:47.620Z,99.99
2017-08-08T03:39:00.158Z,99.99
2017-08-08T03:40:12.434Z,99.99
2017-08-08T03:41:24.778Z,99.99
2017-08-08T03:42:36.769Z,99.99
2017-08-08T03:43:48.743Z,99.99
2017-08-08T03:45:01.292Z,99.99
2017-08-08T03:46:13.577Z,99.99
2017-08-08T03:47:25.853Z,99.99
2017-08-08T03:48:37.762Z,99.99
2017-08-08T03:49:50.029Z,99.99
2017-08-08T03:51:02.311Z,99.99
2017-08-08T03:52:14.836Z,99.99
2017-08-08T03:53:27.411Z,99.99
2017-08-08T03:54:40.041Z,99.99
2017-08-08T03:55:52.649Z,99.99
2017-08-08T03:57:05.234Z,99.99
2017-08-08T03:58:17.797Z,99.99
2017-08-08T03:59:30.399Z,99.99
2017-08-08T04:00:42.379Z,99.99
2017-08-08T04:01:54.692Z,99.99
2017-08-08T04:03:07.587Z,99.99
2017-08-08T04:04:19.871Z,99.99
2017-08-08T04:05:32.215Z,99.99
2017-08-08T04:06:44.846Z,99.99
2017-08-08T04:07:57.497Z,99.99
2017-08-08T04:09:10.093Z,99.99
2017-08-08T04:10:22.647Z,99.99
2017-08-08T04:11:34.891Z,99.99
2017-08-08T04:12:47.488Z,99.99
2017-08-08T04:14:00.108Z,99.99
2017-08-08T04:15:12.691Z,99.99
2017-08-08T04:16:25.268Z,99.99
2017-08-08T04:17:37.889Z,99.99
2017-08-08T04:18:49.871Z,99.99
2017-08-08T04:20:02.795Z,99.99
2017-08-08T04:21:15.038Z,99.99
2017-08-08T04:22:26.978Z,99.99
2017-08-08T04:23:39.579Z,99.99
2017-08-08T04:24:52.115Z,99.99
2017-08-08T04:26:04.743Z,99.99
2017-08-08T04:27:16.776Z,99.99
2017-08-08T04:28:29.109Z,99.99
2017-08-08T04:29:41.723Z,99.99
2017-08-08T04:30:54.285Z,99.99
2017-08-08T04:32:06.925Z,99.99
2017-08-08T04:33:19.511Z,99.99
2017-08-08T04:34:32.081Z,99.99
2017-08-08T04:35:44.589Z,99.99
2017-08-08T04:36:56.849Z,99.99
2017-08-08T04:38:09.424Z,99.99
2017-08-08T04:39:21.699Z,99.99
2017-08-08T04:40:33.949Z,99.99
2017-08-08T04:41:46.540Z,99.99
2017-08-08T04:42:59.141Z,99.99
2017-08-08T04:44:11.136Z,99.99
2017-08-08T04:45:23.768Z,99.99
2017-08-08T04:46:36.316Z,99.99
2017-08-08T04:47:48.855Z,99.99
2017-08-08T04:49:01.491Z,99.99
2017-08-08T04:50:14.072Z,99.99
2017-08-08T04:51:26.609Z,99.99
2017-08-08T04:52:39.177Z,99.99
2017-08-08T04:53:51.776Z,99.99
2017-08-08T04:55:04.336Z,99.99
2017-08-08T04:56:16.844Z,99.99
2017-08-08T04:57:29.486Z,99.99
2017-08-08T04:58:41.748Z,99.99
2017-08-08T04:59:54.105Z,99.99
2017-08-08T05:01:06.760Z,99.99
2017-08-08T05:02:19.386Z,99.99
2017-08-08T05:03:31.396Z,99.99
2017-08-08T05:04:43.436Z,99.99
2017-08-08T05:05:55.432Z,99.99
2017-08-08T05:07:07.703Z,99.99
2017-08-08T05:08:20.267Z,99.99
2017-08-08T05:09:32.838Z,99.99
2017-08-08T05:10:45.428Z,99.99
2017-08-08T05:11:57.714Z,99.99
2017-08-08T05:13:09.690Z,99.99
2017-08-08T05:14:22.259Z,99.99
2017-08-08T05:15:34.606Z,99.99
2017-08-08T05:16:46.927Z,99.99
2017-08-08T05:17:59.518Z,99.99
2017-08-08T05:19:12.356Z,99.99
2017-08-08T05:20:24.676Z,99.99
2017-08-08T05:21:37.240Z,99.99
2017-08-08T05:22:49.218Z,99.99
2017-08-08T05:24:01.482Z,99.99
2017-08-08T05:25:13.160Z,99.99
2017-08-08T05:26:25.715Z,99.81
2017-08-08T05:27:37.364Z,99.99
2017-08-08T05:28:49.964Z,99.99
2017-08-08T05:30:02.574Z,99.99
2017-08-08T05:31:14.526Z,99.91
2017-08-08T05:32:26.507Z,99.99
2017-08-08T05:33:38.500Z,99.99
2017-08-08T05:34:51.161Z,99.99
2017-08-08T05:36:03.757Z,99.91
2017-08-08T05:37:16.352Z,99.99
2017-08-08T05:38:28.935Z,99.38
2017-08-08T05:39:41.599Z,99.1
2017-08-08T05:40:54.442Z,99.58
2017-08-08T05:42:07.087Z,99
2017-08-08T05:43:19.729Z,98.91
2017-08-08T05:44:32.004Z,98.71
2017-08-08T05:45:44.675Z,98.43
2017-08-08T05:46:56.623Z,98.43
2017-08-08T05:48:09.207Z,98.67
2017-08-08T05:49:21.455Z,98.52
2017-08-08T05:50:33.692Z,98.57
2017-08-08T05:51:46.249Z,98.76
2017-08-08T05:52:58.848Z,98.57
2017-08-08T05:54:11.469Z,98.57
2017-08-08T05:55:24.033Z,98
2017-08-08T05:56:36.254Z,98.1
2017-08-08T05:57:48.531Z,97.52
2017-08-08T05:59:01.164Z,97.71
2017-08-08T06:00:13.448Z,97.8
2017-08-08T06:01:26.072Z,97.28
2017-08-08T06:02:38.620Z,97.18
2017-08-08T06:03:50.905Z,96.32
2017-08-08T06:05:03.511Z,96.42
2017-08-08T06:06:16.178Z,95.75
2017-08-08T06:07:28.442Z,95.89
2017-08-08T06:08:40.776Z,95.89
2017-08-08T06:09:52.727Z,95.41
2017-08-08T06:11:05.336Z,95.31
2017-08-08T06:12:17.866Z,94.54
2017-08-08T06:13:30.460Z,95.31
2017-08-08T06:14:42.743Z,94.17
2017-08-08T06:15:55.321Z,93.4
2017-08-08T06:17:07.935Z,93.82
2017-08-08T06:18:19.878Z,94.12
2017-08-08T06:19:32.534Z,94.12
2017-08-08T06:20:45.161Z,92.86
2017-08-08T06:21:57.776Z,93.63
2017-08-08T06:23:10.025Z,93.25
2017-08-08T06:24:22.615Z,93.92
2017-08-08T06:25:34.939Z,93.82
2017-08-08T06:26:47.240Z,93.68
2017-08-08T06:27:59.852Z,93.68
2017-08-08T06:29:11.825Z,92.91
2017-08-08T06:30:24.426Z,92.63
2017-08-08T06:31:37.030Z,91.76
2017-08-08T06:32:49.599Z,91.42
2017-08-08T06:34:02.211Z,91.23
2017-08-08T06:35:14.731Z,90.12
2017-08-08T06:36:26.982Z,89.74
2017-08-08T06:37:38.972Z,90.84
2017-08-08T06:38:51.621Z,89.88
2017-08-08T06:40:04.164Z,88.87
2017-08-08T06:41:16.739Z,87.56
2017-08-08T06:42:28.983Z,86.69
2017-08-08T06:43:40.950Z,86.07
2017-08-08T06:44:53.535Z,83.89
2017-08-08T06:46:05.821Z,84.22
2017-08-08T06:47:18.113Z,82.82
2017-08-08T06:48:30.403Z,81.7
2017-08-08T06:49:42.090Z,80.58
2017-08-08T06:50:54.684Z,80.49
2017-08-08T06:52:06.951Z,78.66
2017-08-08T06:53:19.269Z,78.69
2017-08-08T06:54:31.908Z,78.15
2017-08-08T06:55:44.263Z,75.68
2017-08-08T06:56:56.862Z,74.81
2017-08-08T06:58:08.508Z,74.94
2017-08-08T06:59:21.157Z,74.65
2017-08-08T07:00:33.775Z,72.95
2017-08-08T07:01:45.473Z,72.85
2017-08-08T07:02:57.790Z,72.4
2017-08-08T07:04:10.408Z,72.6
2017-08-08T07:05:22.386Z,71.76
2017-08-08T07:06:35.003Z,69.92
2017-08-08T07:07:46.995Z,68.4
2017-08-08T07:08:59.534Z,68.7
2017-08-08T07:10:12.104Z,68.99
2017-08-08T07:11:24.684Z,66.99
2017-08-08T07:12:36.960Z,66.6
2017-08-08T07:13:49.501Z,65.53
2017-08-08T07:15:02.138Z,66.2
2017-08-08T07:16:14.752Z,66.11
2017-08-08T07:17:27.094Z,66.72
2017-08-08T07:18:39.677Z,66.44
2017-08-08T07:19:52.257Z,65.98
2017-08-08T07:21:04.300Z,63.95
2017-08-08T07:22:16.582Z,63.2
2017-08-08T07:23:28.923Z,64.36
2017-08-08T07:24:41.243Z,63.49
2017-08-08T07:25:53.871Z,61.94
2017-08-08T07:27:06.432Z,63.59
2017-08-08T07:28:19.083Z,61.07
2017-08-08T07:29:31.771Z,62.23
2017-08-08T07:30:43.789Z,62.32
2017-08-08T07:31:56.157Z,63.1
2017-08-08T07:33:08.412Z,62.62
2017-08-08T07:34:20.423Z,62.45
2017-08-08T07:35:32.702Z,60.31
2017-08-08T07:36:45.295Z,60.61
2017-08-08T07:37:57.977Z,61.87
2017-08-08T07:39:10.644Z,62.45
2017-08-08T07:40:22.919Z,62.26
2017-08-08T07:41:35.283Z,61.9
2017-08-08T07:42:47.905Z,62.1
2017-08-08T07:44:00.571Z,61.25
2017-08-08T07:45:12.860Z,60.67
2017-08-08T07:46:24.896Z,60.31
2017-08-08T07:47:37.522Z,57.87
2017-08-08T07:48:50.123Z,58.49
2017-08-08T07:50:02.431Z,58.59
2017-08-08T07:51:15.036Z,59.07
2017-08-08T07:52:27.087Z,57.12
2017-08-08T07:53:39.330Z,55.57
2017-08-08T07:54:51.335Z,55.37
2017-08-08T07:56:04.045Z,55.44
2017-08-08T07:57:16.102Z,55.74
2017-08-08T07:58:28.697Z,55.96
2017-08-08T07:59:41.296Z,56.64
2017-08-08T08:00:53.996Z,55.6
2017-08-08T08:02:06.329Z,54.72
2017-08-08T08:03:18.873Z,54.91
2017-08-08T08:04:31.121Z,55.89
2017-08-08T08:05:43.476Z,54.62
2017-08-08T08:06:55.477Z,54.52
2017-08-08T08:08:07.769Z,53.94
2017-08-08T08:09:20.043Z,53.75
2017-08-08T08:10:32.331Z,53.45
2017-08-08T08:11:44.582Z,54.79
2017-08-08T08:12:56.901Z,55.11
2017-08-08T08:14:09.544Z,54.82
2017-08-08T08:15:21.890Z,54.82
2017-08-08T08:16:34.214Z,54.75
2017-08-08T08:17:46.538Z,53.67
2017-08-08T08:18:59.183Z,53.77
2017-08-08T08:20:11.200Z,53.72
2017-08-08T08:21:22.928Z,54.89
2017-08-08T08:22:35.503Z,55.54
2017-08-08T08:23:47.581Z,55.25
2017-08-08T08:24:59.586Z,55.71
2017-08-08T08:26:12.181Z,57.65
2017-08-08T08:27:24.773Z,57.36
2017-08-08T08:28:37.100Z,56.75
2017-08-08T08:29:49.418Z,57.72
2017-08-08T08:31:01.664Z,59.44
2017-08-08T08:32:13.636Z,59.25
2017-08-08T08:33:26.255Z,59.61
2017-08-08T08:34:38.905Z,60.19
2017-08-08T08:35:51.416Z,59.97
2017-08-08T08:37:03.718Z,60.42
2017-08-08T08:38:16.012Z,59.36
2017-08-08T08:39:28.308Z,59.81
2017-08-08T08:40:40.984Z,60.94
2017-08-08T08:41:52.708Z,62.69
2017-08-08T08:43:05.309Z,63.07
2017-08-08T08:44:17.874Z,62.85
2017-08-08T08:45:29.864Z,61.79
2017-08-08T08:46:42.146Z,64.01
2017-08-08T08:47:54.810Z,63.49
2017-08-08T08:49:07.088Z,63.89
2017-08-08T08:50:19.722Z,65.05
2017-08-08T08:51:32.012Z,65.24
2017-08-08T08:52:44.639Z,67.08
2017-08-08T08:53:57.279Z,67.27
2017-08-08T08:55:09.568Z,66.98
2017-08-08T08:56:21.615Z,65.4
2017-08-08T08:57:33.560Z,64.82
2017-08-08T08:58:45.605Z,64.43
2017-08-08T08:59:57.945Z,64.82
2017-08-08T09:01:10.504Z,63.85
2017-08-08T09:02:22.780Z,63.85
2017-08-08T09:03:35.097Z,65.01
2017-08-08T09:04:47.717Z,66.27
2017-08-08T09:05:59.946Z,64.34
2017-08-08T09:07:12.498Z,66.47
2017-08-08T09:08:24.780Z,66.85
2017-08-08T09:09:37.335Z,66.47
2017-08-08T09:10:49.703Z,65.01
2017-08-08T09:12:02.268Z,65.4
2017-08-08T09:13:14.544Z,65.88
2017-08-08T09:14:27.134Z,65.3
2017-08-08T09:15:39.381Z,65.72
2017-08-08T09:16:51.970Z,66.3
2017-08-08T09:18:04.521Z,66.2
2017-08-08T09:19:17.144Z,66.98
2017-08-08T09:20:29.772Z,65.43
2017-08-08T09:21:42.010Z,64.75
2017-08-08T09:22:53.944Z,64.95
2017-08-08T09:24:06.185Z,64.95
2017-08-08T09:25:18.422Z,63.89
2017-08-08T09:26:30.444Z,64.95
2017-08-08T09:27:43.062Z,65.34
2017-08-08T09:28:54.423Z,66.3
2017-08-08T09:30:07.004Z,66.69
2017-08-08T09:31:19.003Z,67.95
2017-08-08T09:32:31.030Z,65.34
2017-08-08T09:33:43.667Z,65.72
2017-08-08T09:34:55.972Z,65.82
2017-08-08T09:36:08.592Z,65.43
2017-08-08T09:37:20.939Z,65.24
2017-08-08T09:38:33.596Z,66.2
2017-08-08T09:39:46.261Z,66.88
2017-08-08T09:40:58.563Z,66.69
2017-08-08T09:42:11.222Z,67.66
2017-08-08T09:43:22.946Z,67.69
2017-08-08T09:44:35.576Z,64.2
2017-08-08T09:45:48.218Z,64.4
2017-08-08T09:47:00.755Z,65.47
2017-08-08T09:48:13.419Z,65.47
2017-08-08T09:49:25.992Z,65.75
2017-08-08T09:50:38.223Z,64.4
2017-08-08T09:51:50.857Z,63.24
2017-08-08T09:53:02.872Z,63.72
2017-08-08T09:54:15.486Z,64.01
2017-08-08T09:55:27.822Z,63.82
2017-08-08T09:56:40.428Z,65.95
2017-08-08T09:57:52.411Z,64.3
2017-08-08T09:59:04.667Z,63.82
2017-08-08T10:00:16.998Z,64.01
2017-08-08T10:01:29.327Z,65.08
2017-08-08T10:02:41.902Z,66.14
2017-08-08T10:03:54.541Z,65.47
2017-08-08T10:05:06.820Z,65.08
2017-08-08T10:06:19.498Z,66.56
2017-08-08T10:07:31.772Z,66.75
2017-08-08T10:08:44.113Z,63.95
2017-08-08T10:09:56.446Z,63.95
2017-08-08T10:11:08.729Z,64.07
2017-08-08T10:12:21.323Z,63.88
2017-08-08T10:13:33.900Z,64.01
2017-08-08T10:14:46.499Z,64.4
2017-08-08T10:15:58.514Z,63.91
2017-08-08T10:17:11.189Z,63.07
2017-08-08T10:18:23.257Z,63.26
2017-08-08T10:19:35.911Z,62.04
2017-08-08T10:20:48.185Z,60.48
2017-08-08T10:22:00.142Z,60.41
2017-08-08T10:23:12.466Z,62.07
2017-08-08T10:24:25.077Z,61.09
2017-08-08T10:25:37.686Z,61.51
2017-08-08T10:26:50.273Z,60.05
2017-08-08T10:28:02.868Z,60.77
2017-08-08T10:29:15.514Z,59.53
2017-08-08T10:30:28.134Z,58.36
2017-08-08T10:31:40.460Z,58.97
2017-08-08T10:32:53.081Z,58.71
2017-08-08T10:34:05.359Z,57.45
2017-08-08T10:35:18.035Z,58.15
2017-08-08T10:36:30.739Z,56.04
2017-08-08T10:37:43.028Z,55.65
2017-08-08T10:38:55.666Z,55.87
2017-08-08T10:40:07.969Z,56.07
2017-08-08T10:41:20.578Z,56
2017-08-08T10:42:33.180Z,54.46
2017-08-08T10:43:45.518Z,54.17
2017-08-08T10:44:58.089Z,54.95
2017-08-08T10:46:10.407Z,54.39
2017-08-08T10:47:22.406Z,53.44
2017-08-08T10:48:34.779Z,54.61
2017-08-08T10:49:47.172Z,53.83
2017-08-08T10:50:59.496Z,54.52
2017-08-08T10:52:12.137Z,53.93
2017-08-08T10:53:24.439Z,53.86
2017-08-08T10:54:36.504Z,53.56
2017-08-08T10:55:48.527Z,53.76
2017-08-08T10:57:01.143Z,53.66
2017-08-08T10:58:13.743Z,54.03
2017-08-08T10:59:26.086Z,53.54
2017-08-08T11:00:38.700Z,54.13
2017-08-08T11:01:51.343Z,54.22
2017-08-08T11:03:03.667Z,54.83
2017-08-08T11:04:16.262Z,54.15
2017-08-08T11:05:28.521Z,54.05
2017-08-08T11:06:41.179Z,54.05
2017-08-08T11:07:53.757Z,54.08
2017-08-08T11:09:06.109Z,55.35
2017-08-08T11:10:18.688Z,53.72
2017-08-08T11:11:30.649Z,54.21
2017-08-08T11:12:43.029Z,55.16
2017-08-08T11:13:55.680Z,54.96
2017-08-08T11:15:07.983Z,53.98
2017-08-08T11:16:19.991Z,53.98
2017-08-08T11:17:31.982Z,53.88
2017-08-08T11:18:44.632Z,54.05
2017-08-08T11:19:57.015Z,54.81
2017-08-08T11:21:09.630Z,55.76
2017-08-08T11:22:22.165Z,56.54
2017-08-08T11:23:34.973Z,56.05
2017-08-08T11:24:46.967Z,56.35
2017-08-08T11:25:58.952Z,55.86
2017-08-08T11:27:11.270Z,56.05
2017-08-08T11:28:23.881Z,57.03
2017-08-08T11:29:36.491Z,56.27
2017-08-08T11:30:49.073Z,55.88
2017-08-08T11:32:01.055Z,55.76
2017-08-08T11:33:13.638Z,55.86
2017-08-08T11:34:25.935Z,56.15
2017-08-08T11:35:38.263Z,56.15
2017-08-08T11:36:50.828Z,55.66
2017-08-08T11:38:02.804Z,55.27
2017-08-08T11:39:15.040Z,55.66
2017-08-08T11:40:27.362Z,55.79
2017-08-08T11:41:39.991Z,55.49
2017-08-08T11:42:52.300Z,55.32
2017-08-08T11:44:04.921Z,55.52
2017-08-08T11:45:17.542Z,56.4
2017-08-08T11:46:30.182Z,55
2017-08-08T11:47:42.526Z,55.2
2017-08-08T11:48:55.174Z,56.18
2017-08-08T11:50:07.531Z,56.35
2017-08-08T11:51:19.837Z,56.84
2017-08-08T11:52:32.455Z,56.54
2017-08-08T11:53:44.802Z,59.28
2017-08-08T11:54:57.428Z,57.91
2017-08-08T11:56:09.743Z,58.47
2017-08-08T11:57:22.334Z,57.88
2017-08-08T11:58:34.349Z,57.1
2017-08-08T11:59:46.905Z,58.47
2017-08-08T12:00:59.646Z,58.2
2017-08-08T12:02:11.653Z,56.64
2017-08-08T12:03:23.398Z,56.15
2017-08-08T12:04:35.757Z,56.84
2017-08-08T12:05:48.386Z,57.62
2017-08-08T12:07:00.695Z,55.4
2017-08-08T12:08:13.030Z,55.03
2017-08-08T12:09:25.029Z,55.13
2017-08-08T12:10:37.017Z,55.16
2017-08-08T12:11:49.366Z,54.5
2017-08-08T12:13:01.640Z,54.43
2017-08-08T12:14:13.961Z,55.04
2017-08-08T12:15:26.593Z,54.36
2017-08-08T12:16:38.892Z,55.24
2017-08-08T12:17:51.500Z,54.16
2017-08-08T12:19:04.095Z,55.21
2017-08-08T12:20:16.723Z,55.31
2017-08-08T12:21:28.700Z,55.01
2017-08-08T12:22:40.672Z,54.91
2017-08-08T12:23:53.018Z,53.35
2017-08-08T12:25:05.659Z,53.67
2017-08-08T12:26:18.291Z,52.56
2017-08-08T12:27:30.925Z,52.37
2017-08-08T12:28:43.197Z,53.28
2017-08-08T12:29:55.249Z,53.67
2017-08-08T12:31:07.259Z,53.11
2017-08-08T12:32:19.576Z,52.81
2017-08-08T12:33:31.846Z,50.39
2017-08-08T12:34:44.443Z,49.26
2017-08-08T12:35:57.088Z,49.26
2017-08-08T12:37:09.748Z,49.29
2017-08-08T12:38:22.101Z,49.51
2017-08-08T12:39:34.678Z,48.52
2017-08-08T12:40:47.316Z,46.88
2017-08-08T12:41:59.606Z,47.56
2017-08-08T12:43:11.935Z,47.78
2017-08-08T12:44:24.233Z,46.7
2017-08-08T12:45:36.178Z,47.12
2017-08-08T12:46:48.547Z,47.29
2017-08-08T12:48:00.281Z,46.82
2017-08-08T12:49:12.592Z,46.62
2017-08-08T12:50:24.949Z,46.13
2017-08-08T12:51:37.542Z,46.62
2017-08-08T12:52:49.869Z,47.8
2017-08-08T12:54:02.484Z,46.45
2017-08-08T12:55:14.792Z,47.04
2017-08-08T12:56:27.451Z,46.06
2017-08-08T12:57:40.105Z,47.53
2017-08-08T12:58:52.424Z,46.06
2017-08-08T13:00:04.741Z,46.25
2017-08-08T13:01:17.055Z,47.16
2017-08-08T13:02:29.657Z,45.88
2017-08-08T13:03:42.266Z,45.39
2017-08-08T13:04:54.614Z,45.09
2017-08-08T13:06:07.188Z,47.19
2017-08-08T13:07:19.445Z,47.09
2017-08-08T13:08:32.040Z,46.47
2017-08-08T13:09:44.346Z,45.02
2017-08-08T13:10:56.646Z,44.62
2017-08-08T13:12:09.298Z,44.74
2017-08-08T13:13:21.965Z,43.27
2017-08-08T13:14:34.629Z,43.17
2017-08-08T13:15:47.249Z,44.15
2017-08-08T13:16:59.901Z,44.74
2017-08-08T13:18:12.467Z,45.53
2017-08-08T13:19:24.754Z,44.33
2017-08-08T13:20:37.360Z,43.84
2017-08-08T13:21:49.737Z,43.84
2017-08-08T13:23:02.350Z,46.28
2017-08-08T13:24:14.951Z,45.76
2017-08-08T13:25:27.520Z,46.23
2017-08-08T13:26:40.116Z,46.11
2017-08-08T13:27:51.850Z,46.01
2017-08-08T13:29:04.143Z,45.62
2017-08-08T13:30:16.508Z,44.66
2017-08-08T13:31:28.187Z,45.81
2017-08-08T13:32:40.869Z,47
2017-08-08T13:33:53.442Z,45.42
2017-08-08T13:35:05.166Z,45.81
2017-08-08T13:36:17.456Z,46.58
2017-08-08T13:37:29.794Z,46.36
2017-08-08T13:38:42.408Z,46.34
2017-08-08T13:39:54.692Z,46.04
2017-08-08T13:41:07.002Z,46.61
2017-08-08T13:42:19.316Z,46.31
2017-08-08T13:43:31.383Z,48.08
2017-08-08T13:44:43.950Z,46.81
2017-08-08T13:45:56.589Z,48.08
2017-08-08T13:47:08.868Z,47.79
2017-08-08T13:48:21.141Z,47.99
2017-08-08T13:49:33.454Z,47.27
2017-08-08T13:50:45.692Z,46.98
2017-08-08T13:51:57.743Z,46.49
2017-08-08T13:53:09.766Z,47.69
2017-08-08T13:54:22.375Z,48.16
2017-08-08T13:55:34.746Z,47.84
2017-08-08T13:56:47.347Z,48.33
2017-08-08T13:57:59.677Z,47.86
2017-08-08T13:59:11.682Z,47.08
2017-08-08T14:00:24.304Z,48.45
2017-08-08T14:01:36.913Z,47.96
2017-08-08T14:02:49.216Z,49.24
2017-08-08T14:04:01.844Z,48.25
2017-08-08T14:05:14.091Z,48.16
2017-08-08T14:06:26.380Z,49.92
2017-08-08T14:07:38.750Z,49.14
2017-08-08T14:08:51.337Z,49.33
2017-08-08T14:10:03.097Z,48.77
2017-08-08T14:11:15.098Z,49.36
2017-08-08T14:12:27.775Z,48.57
2017-08-08T14:13:39.991Z,48.38
2017-08-08T14:14:52.294Z,47.22
2017-08-08T14:16:04.624Z,47.03
2017-08-08T14:17:16.645Z,48.01
2017-08-08T14:18:29.336Z,47.59
2017-08-08T14:19:41.345Z,49.07
2017-08-08T14:20:53.085Z,48.06
2017-08-08T14:22:05.087Z,48.06
2017-08-08T14:23:17.721Z,49.04
2017-08-08T14:24:30.067Z,49.02
2017-08-08T14:25:42.640Z,49.09
2017-08-08T14:26:55.227Z,50.07
2017-08-08T14:28:07.792Z,50.15
2017-08-08T14:29:20.089Z,52.1
2017-08-08T14:30:32.683Z,52.05
2017-08-08T14:31:44.695Z,52.05
2017-08-08T14:32:56.982Z,51.54
2017-08-08T14:34:09.335Z,52.03
2017-08-08T14:35:21.604Z,52.98
2017-08-08T14:36:33.647Z,53.93
2017-08-08T14:37:45.676Z,54.42
2017-08-08T14:38:58.049Z,54.49
2017-08-08T14:40:10.675Z,54.79
2017-08-08T14:41:23.278Z,54.59
2017-08-08T14:42:35.917Z,54.75
2017-08-08T14:43:48.255Z,54.73
2017-08-08T14:45:00.876Z,54.93
2017-08-08T14:46:13.437Z,55.97
2017-08-08T14:47:25.714Z,55.77
2017-08-08T14:48:37.666Z,56.07
2017-08-08T14:49:50.241Z,56.26
2017-08-08T14:51:02.555Z,56.72
2017-08-08T14:52:15.146Z,57.11
2017-08-08T14:53:27.451Z,57.31
2017-08-08T14:54:39.790Z,57.21
2017-08-08T14:55:52.147Z,57.5
2017-08-08T14:57:04.706Z,57.31
2017-08-08T14:58:16.967Z,57.4
2017-08-08T14:59:28.703Z,59.45
2017-08-08T15:00:40.755Z,60.03
2017-08-08T15:01:52.507Z,59.45
2017-08-08T15:03:04.785Z,59.42
2017-08-08T15:04:16.769Z,60.56
2017-08-08T15:05:29.395Z,60.98
2017-08-08T15:06:41.688Z,59.98
2017-08-08T15:07:54.294Z,60.34
2017-08-08T15:09:06.939Z,60.05
2017-08-08T15:10:18.916Z,60.44
2017-08-08T15:11:31.201Z,60.41
2017-08-08T15:12:43.496Z,61.28
2017-08-08T15:13:56.111Z,62.64
2017-08-08T15:15:08.698Z,63.23
2017-08-08T15:16:20.718Z,63.81
2017-08-08T15:17:33.023Z,64.56
2017-08-08T15:18:45.392Z,64.75
2017-08-08T15:19:57.736Z,64.26
2017-08-08T15:21:10.364Z,64.56
2017-08-08T15:22:22.950Z,63.59
2017-08-08T15:23:35.578Z,64.85
2017-08-08T15:24:47.851Z,65.01
2017-08-08T15:26:00.164Z,65.01
2017-08-08T15:27:12.459Z,65.3
2017-08-08T15:28:24.443Z,63.84
2017-08-08T15:29:36.150Z,63.84
2017-08-08T15:30:48.777Z,64.4
2017-08-08T15:32:01.088Z,64.62
2017-08-08T15:33:13.683Z,65.95
2017-08-08T15:34:25.706Z,65.37
2017-08-08T15:35:38.029Z,65.37